ซูริก, ประเทศสวิตเซอร์แลนด์

08:45 PM CET วัน ตุลาคม 31, 2014 (GMT +0100)
Zurich-Witikon | Change Station
CLOSE
Current Station
Personal Weather Stations
Location: Zürich, ZüRICH
Elevation: 1998 ft
Nearby Weather Stations

Elev 1998 ft 47.36 °N, 8.60 °E | Updated 4 minutes ago

Clear
ท้องฟ้าแจ่มใส
46.6 ฟาเรนไฮน์
Feels Like 47 ฟาเรนไฮน์
N
0.0
ลม ความผันแปร ลม from ทางทิศตะวันออกเฉียงเหนือ
Gusts 0.0 mph

วันนี้
High -- | Low -- ฟาเรนไฮน์
--% Chance of Precip.
Yesterday
High -- | Low -- ฟาเรนไฮน์
Precip. -- นิ้ว
7:07 AM 5:10 PM
ไตรมาสแรก, 58% visible
ความดัน 30.27 นิ้ว
ทัศนวิสัย 4.3 ไมล์
เมฆ
ลมหนาว 47 ฟาเรนไฮน์
อุณหภูมิที่อากาศอาจจับตัวเป็นหยาดน้ำค้าง 45 ฟาเรนไฮน์
ความชื้น 94%
Rainfall 0.00 นิ้ว
Snow Depth Not available.
UV 0.0 out of 12
Pollen Not available.
Air Quality Not available.
Flu Activity Not available.
METAR LSZH 311920Z VRB02KT 7000 NSC 08/07 Q1025 NOSIG

More Conditions Fewer Conditions

ความดัน 30.27 นิ้ว
ทัศนวิสัย 4.3 ไมล์
เมฆ
ลมหนาว 47 ฟาเรนไฮน์
อุณหภูมิที่อากาศอาจจับตัวเป็นหยาดน้ำค้าง 45 ฟาเรนไฮน์
ความชื้น 94%
Rainfall 0.00 นิ้ว
Snow Depth Not available.
UV 0.0 out of 12
Pollen Not available.
Air Quality Not available.
Flu Activity Not available.
METAR LSZH 311920Z VRB02KT 7000 NSC 08/07 Q1025 NOSIG

More Conditions Fewer Conditions

10-Day Weather Forecast

Almanac

ดาราศาสตร์

Oct. 31, 2014 Rise Set
Actual Time
Civil Twilight
Nautical Twilight
Astronomical Twilight
Moon
Length Of Visible Light
ความยาวของวัน
Tomorrow will be .
, % of the Moon is Illuminated

Today's Extremes

Country Highs Country Lows

Community

WunderPhotos

Upload Photos

1,766,711 photos uploaded!

WunderBlogs® & News

Nearby

Air Quality

  Air Quality AQ Index Pollutant
Not available.

Snow Depth

Station Depth Elevation

Earthquake Activity

City Distance Mag. Time & Date
Minimum magnitude displayed is 2.5.

Coastal Water Temperatures

สถานที่ อุณหภูมิ

Nearby Weather Stations